sensor_id;sensor_type;location;lat;lon;timestamp;pressure;altitude;pressure_sealevel;temperature;humidity
22653;BME280;11493;43.344;26.226;2023-03-19T00:02:07;99980.34;;;7.19;95.36
22653;BME280;11493;43.344;26.226;2023-03-19T00:04:44;99987.19;;;7.11;95.50
22653;BME280;11493;43.344;26.226;2023-03-19T00:07:12;99991.56;;;7.12;95.53
22653;BME280;11493;43.344;26.226;2023-03-19T00:09:40;99995.97;;;7.08;95.65
22653;BME280;11493;43.344;26.226;2023-03-19T00:12:08;99995.94;;;7.13;95.52
22653;BME280;11493;43.344;26.226;2023-03-19T00:14:35;99990.47;;;7.18;95.52
22653;BME280;11493;43.344;26.226;2023-03-19T00:17:02;99990.75;;;7.17;95.16
22653;BME280;11493;43.344;26.226;2023-03-19T00:19:29;99995.94;;;7.18;94.94
22653;BME280;11493;43.344;26.226;2023-03-19T00:21:56;99998.69;;;7.13;94.55
22653;BME280;11493;43.344;26.226;2023-03-19T00:24:24;99993.50;;;7.17;94.64
22653;BME280;11493;43.344;26.226;2023-03-19T00:26:51;99987.19;;;7.16;94.48
22653;BME280;11493;43.344;26.226;2023-03-19T00:29:17;99980.34;;;7.19;94.50
22653;BME280;11493;43.344;26.226;2023-03-19T00:31:45;99973.78;;;7.15;94.33
22653;BME280;11493;43.344;26.226;2023-03-19T00:34:13;99963.94;;;7.19;94.20
22653;BME280;11493;43.344;26.226;2023-03-19T00:36:40;99962.03;;;7.09;93.70
22653;BME280;11493;43.344;26.226;2023-03-19T00:39:08;99962.28;;;7.13;93.64
22653;BME280;11493;43.344;26.226;2023-03-19T00:41:35;99946.69;;;7.08;93.47
22653;BME280;11493;43.344;26.226;2023-03-19T00:44:03;99960.13;;;7.05;93.74
22653;BME280;11493;43.344;26.226;2023-03-19T00:46:31;99969.97;;;6.96;94.10
22653;BME280;11493;43.344;26.226;2023-03-19T00:48:58;99959.03;;;6.96;94.53
22653;BME280;11493;43.344;26.226;2023-03-19T00:51:25;99955.75;;;6.88;94.83
22653;BME280;11493;43.344;26.226;2023-03-19T00:53:53;99952.75;;;6.95;95.24
22653;BME280;11493;43.344;26.226;2023-03-19T00:56:20;99960.13;;;7.00;95.01
22653;BME280;11493;43.344;26.226;2023-03-19T00:58:47;99949.19;;;7.00;95.34
22653;BME280;11493;43.344;26.226;2023-03-19T01:01:16;99966.69;;;7.04;94.64
22653;BME280;11493;43.344;26.226;2023-03-19T01:03:44;99954.09;;;7.03;94.68
22653;BME280;11493;43.344;26.226;2023-03-19T01:06:12;99947.53;;;7.04;94.67
22653;BME280;11493;43.344;26.226;2023-03-19T01:08:39;99959.84;;;7.06;93.99
22653;BME280;11493;43.344;26.226;2023-03-19T01:11:09;99958.72;;;7.12;94.22
22653;BME280;11493;43.344;26.226;2023-03-19T01:13:37;99957.66;;;7.08;94.17
22653;BME280;11493;43.344;26.226;2023-03-19T01:16:05;99955.72;;;7.09;93.92
22653;BME280;11493;43.344;26.226;2023-03-19T01:18:33;99932.50;;;7.01;93.98
22653;BME280;11493;43.344;26.226;2023-03-19T01:21:00;99959.56;;;7.13;93.75
22653;BME280;11493;43.344;26.226;2023-03-19T01:23:29;99953.28;;;7.07;93.28
22653;BME280;11493;43.344;26.226;2023-03-19T01:25:57;99947.25;;;7.10;93.21
22653;BME280;11493;43.344;26.226;2023-03-19T01:28:25;99953.25;;;7.12;93.35
22653;BME280;11493;43.344;26.226;2023-03-19T01:30:52;99951.34;;;7.13;92.76
22653;BME280;11493;43.344;26.226;2023-03-19T01:33:36;99948.63;;;7.13;92.85
22653;BME280;11493;43.344;26.226;2023-03-19T01:36:16;99952.16;;;7.13;92.83
22653;BME280;11493;43.344;26.226;2023-03-19T01:38:56;99943.13;;;7.13;92.93
22653;BME280;11493;43.344;26.226;2023-03-19T01:41:23;99943.69;;;7.15;93.43
22653;BME280;11493;43.344;26.226;2023-03-19T01:43:52;99937.94;;;7.16;93.28
22653;BME280;11493;43.344;26.226;2023-03-19T01:46:48;99943.69;;;7.15;93.12
22653;BME280;11493;43.344;26.226;2023-03-19T01:49:34;99952.16;;;7.18;92.73
22653;BME280;11493;43.344;26.226;2023-03-19T01:52:14;99955.44;;;7.20;92.43
22653;BME280;11493;43.344;26.226;2023-03-19T01:55:03;99945.88;;;7.13;91.86
22653;BME280;11493;43.344;26.226;2023-03-19T01:57:47;99952.16;;;7.18;92.09
22653;BME280;11493;43.344;26.226;2023-03-19T02:00:52;99954.88;;;7.23;92.04
22653;BME280;11493;43.344;26.226;2023-03-19T02:03:20;99953.25;;;7.17;92.43
22653;BME280;11493;43.344;26.226;2023-03-19T02:05:52;99958.72;;;7.17;92.09
22653;BME280;11493;43.344;26.226;2023-03-19T02:08:22;99958.72;;;7.17;92.03
22653;BME280;11493;43.344;26.226;2023-03-19T02:10:51;99941.78;;;7.10;91.87
22653;BME280;11493;43.344;26.226;2023-03-19T02:13:22;99962.00;;;7.24;92.09
22653;BME280;11493;43.344;26.226;2023-03-19T02:15:49;99949.44;;;7.13;92.21
22653;BME280;11493;43.344;26.226;2023-03-19T02:18:17;99949.44;;;7.13;92.50
22653;BME280;11493;43.344;26.226;2023-03-19T02:21:05;99960.91;;;7.20;92.24
22653;BME280;11493;43.344;26.226;2023-03-19T02:24:05;99956.81;;;7.18;92.47
22653;BME280;11493;43.344;26.226;2023-03-19T02:26:56;99956.00;;;7.17;91.95
22653;BME280;11493;43.344;26.226;2023-03-19T02:29:24;99953.78;;;7.19;91.53
22653;BME280;11493;43.344;26.226;2023-03-19T02:31:52;99952.44;;;7.12;91.69
22653;BME280;11493;43.344;26.226;2023-03-19T02:36:50;99949.44;;;7.08;92.59
22653;BME280;11493;43.344;26.226;2023-03-19T02:39:24;99958.19;;;7.10;93.14
22653;BME280;11493;43.344;26.226;2023-03-19T02:41:53;99962.56;;;7.11;93.10
22653;BME280;11493;43.344;26.226;2023-03-19T02:44:23;99962.31;;;7.08;93.11
22653;BME280;11493;43.344;26.226;2023-03-19T02:46:50;99968.59;;;7.13;93.26
22653;BME280;11493;43.344;26.226;2023-03-19T02:49:17;99961.47;;;7.07;93.00
22653;BME280;11493;43.344;26.226;2023-03-19T02:51:45;99978.44;;;7.14;93.39
22653;BME280;11493;43.344;26.226;2023-03-19T02:54:12;99953.81;;;6.99;93.28
22653;BME280;11493;43.344;26.226;2023-03-19T02:56:39;99976.53;;;7.10;93.09
22653;BME280;11493;43.344;26.226;2023-03-19T02:59:06;99977.34;;;7.05;93.04
22653;BME280;11493;43.344;26.226;2023-03-19T03:01:33;99974.34;;;7.02;93.83
22653;BME280;11493;43.344;26.226;2023-03-19T03:04:00;99972.72;;;7.01;93.18
22653;BME280;11493;43.344;26.226;2023-03-19T03:06:27;99993.22;;;7.03;93.13
22653;BME280;11493;43.344;26.226;2023-03-19T03:08:54;99979.53;;;7.08;93.29
22653;BME280;11493;43.344;26.226;2023-03-19T03:11:21;99979.53;;;7.08;93.10
22653;BME280;11493;43.344;26.226;2023-03-19T03:13:48;99977.34;;;7.05;93.47
22653;BME280;11493;43.344;26.226;2023-03-19T03:16:15;99978.44;;;6.99;93.58
22653;BME280;11493;43.344;26.226;2023-03-19T03:18:43;99979.28;;;7.00;93.93
22653;BME280;11493;43.344;26.226;2023-03-19T03:21:09;99975.16;;;6.97;94.32
22653;BME280;11493;43.344;26.226;2023-03-19T03:23:37;99987.75;;;7.03;94.52
22653;BME280;11493;43.344;26.226;2023-03-19T03:26:04;99990.22;;;7.00;95.23
22653;BME280;11493;43.344;26.226;2023-03-19T03:28:33;99979.81;;;6.97;95.47
22653;BME280;11493;43.344;26.226;2023-03-19T03:31:00;99991.03;;;7.00;96.04
22653;BME280;11493;43.344;26.226;2023-03-19T03:33:28;99993.78;;;7.00;96.08
22653;BME280;11493;43.344;26.226;2023-03-19T03:35:55;99994.31;;;6.97;96.71
22653;BME280;11493;43.344;26.226;2023-03-19T03:38:23;99998.16;;;6.96;96.56
22653;BME280;11493;43.344;26.226;2023-03-19T03:40:50;99998.97;;;7.02;96.64
22653;BME280;11493;43.344;26.226;2023-03-19T03:43:24;99997.88;;;6.98;96.73
22653;BME280;11493;43.344;26.226;2023-03-19T03:45:51;100002.25;;;6.99;96.96
22653;BME280;11493;43.344;26.226;2023-03-19T03:48:20;99993.78;;;6.95;97.31
22653;BME280;11493;43.344;26.226;2023-03-19T03:50:48;99980.66;;;6.87;97.64
22653;BME280;11493;43.344;26.226;2023-03-19T03:53:19;99989.94;;;6.96;97.59
22653;BME280;11493;43.344;26.226;2023-03-19T03:55:46;99996.50;;;7.00;97.81
22653;BME280;11493;43.344;26.226;2023-03-19T03:58:16;100001.44;;;6.98;97.92
22653;BME280;11493;43.344;26.226;2023-03-19T04:00:44;100000.88;;;7.01;97.39
22653;BME280;11493;43.344;26.226;2023-03-19T04:03:12;99994.88;;;6.94;97.92
22653;BME280;11493;43.344;26.226;2023-03-19T04:05:40;99998.16;;;6.91;98.15
22653;BME280;11493;43.344;26.226;2023-03-19T04:08:07;99998.69;;;6.93;98.05
22653;BME280;11493;43.344;26.226;2023-03-19T04:10:34;100009.09;;;6.96;98.09
22653;BME280;11493;43.344;26.226;2023-03-19T04:13:04;100014.56;;;7.01;98.14
22653;BME280;11493;43.344;26.226;2023-03-19T04:15:32;99980.66;;;6.92;97.67
22653;BME280;11493;43.344;26.226;2023-03-19T04:18:00;100007.47;;;7.00;97.82
22653;BME280;11493;43.344;26.226;2023-03-19T04:20:27;100015.66;;;7.00;97.92
22653;BME280;11493;43.344;26.226;2023-03-19T04:22:54;100004.16;;;7.03;97.71
22653;BME280;11493;43.344;26.226;2023-03-19T04:25:22;100009.09;;;7.01;97.50
22653;BME280;11493;43.344;26.226;2023-03-19T04:27:50;100003.63;;;6.96;97.90
22653;BME280;11493;43.344;26.226;2023-03-19T04:30:18;100016.22;;;7.02;98.21
22653;BME280;11493;43.344;26.226;2023-03-19T04:32:45;100006.91;;;7.03;98.24
22653;BME280;11493;43.344;26.226;2023-03-19T04:35:14;100014.84;;;7.10;98.12
22653;BME280;11493;43.344;26.226;2023-03-19T04:37:41;100012.38;;;7.08;97.90
22653;BME280;11493;43.344;26.226;2023-03-19T04:40:15;100005.25;;;7.12;97.64
22653;BME280;11493;43.344;26.226;2023-03-19T04:42:43;100007.72;;;7.14;97.82
22653;BME280;11493;43.344;26.226;2023-03-19T04:45:19;100009.63;;;7.08;97.94
22653;BME280;11493;43.344;26.226;2023-03-19T04:47:46;100022.22;;;7.09;98.25
22653;BME280;11493;43.344;26.226;2023-03-19T04:50:14;100015.13;;;7.13;97.79
22653;BME280;11493;43.344;26.226;2023-03-19T04:52:42;100016.22;;;7.12;97.49
22653;BME280;11493;43.344;26.226;2023-03-19T04:55:10;100016.75;;;7.19;97.05
22653;BME280;11493;43.344;26.226;2023-03-19T04:57:47;100009.63;;;7.18;96.94
22653;BME280;11493;43.344;26.226;2023-03-19T05:00:14;100001.69;;;7.17;97.25
22653;BME280;11493;43.344;26.226;2023-03-19T05:02:44;100008.53;;;7.19;96.69
22653;BME280;11493;43.344;26.226;2023-03-19T05:05:12;100018.13;;;7.17;96.34
22653;BME280;11493;43.344;26.226;2023-03-19T05:07:40;100008.53;;;7.14;96.47
22653;BME280;11493;43.344;26.226;2023-03-19T05:10:10;100009.91;;;7.17;97.10
22653;BME280;11493;43.344;26.226;2023-03-19T05:12:37;100020.03;;;7.16;97.37
22653;BME280;11493;43.344;26.226;2023-03-19T05:15:05;100005.25;;;7.07;97.11
22653;BME280;11493;43.344;26.226;2023-03-19T05:17:40;100015.38;;;7.27;96.93
22653;BME280;11493;43.344;26.226;2023-03-19T05:20:19;100014.53;;;7.32;96.62
22653;BME280;11493;43.344;26.226;2023-03-19T05:22:52;100028.22;;;7.37;96.33
22653;BME280;11493;43.344;26.226;2023-03-19T05:25:26;100022.19;;;7.35;96.75
22653;BME280;11493;43.344;26.226;2023-03-19T05:27:53;100027.13;;;7.38;96.04
22653;BME280;11493;43.344;26.226;2023-03-19T05:30:22;100017.81;;;7.39;95.88
22653;BME280;11493;43.344;26.226;2023-03-19T05:33:06;100016.19;;;7.38;95.83
22653;BME280;11493;43.344;26.226;2023-03-19T05:35:37;100018.88;;;7.43;95.94
22653;BME280;11493;43.344;26.226;2023-03-19T05:38:20;100021.31;;;7.59;94.71
22653;BME280;11493;43.344;26.226;2023-03-19T05:40:54;100012.78;;;7.66;93.93
22653;BME280;11493;43.344;26.226;2023-03-19T05:43:31;100014.97;;;7.69;93.36
22653;BME280;11493;43.344;26.226;2023-03-19T05:46:03;100009.22;;;7.71;93.16
22653;BME280;11493;43.344;26.226;2023-03-19T05:48:32;100015.47;;;7.86;92.18
22653;BME280;11493;43.344;26.226;2023-03-19T05:51:01;100017.63;;;7.95;91.56
22653;BME280;11493;43.344;26.226;2023-03-19T05:53:35;100025.25;;;8.03;91.38
22653;BME280;11493;43.344;26.226;2023-03-19T05:56:25;100022.03;;;7.90;92.17
22653;BME280;11493;43.344;26.226;2023-03-19T05:59:15;100027.19;;;8.02;91.76
22653;BME280;11493;43.344;26.226;2023-03-19T06:01:49;100006.06;;;8.08;91.34
22653;BME280;11493;43.344;26.226;2023-03-19T06:04:16;100020.50;;;8.18;90.59
22653;BME280;11493;43.344;26.226;2023-03-19T06:06:44;100019.19;;;8.11;90.51
22653;BME280;11493;43.344;26.226;2023-03-19T06:09:11;100008.78;;;8.13;90.91
22653;BME280;11493;43.344;26.226;2023-03-19T06:11:41;100009.63;;;8.08;90.01
22653;BME280;11493;43.344;26.226;2023-03-19T06:14:27;100003.81;;;8.15;90.67
22653;BME280;11493;43.344;26.226;2023-03-19T06:17:13;99998.81;;;8.22;89.71
22653;BME280;11493;43.344;26.226;2023-03-19T06:19:41;100010.88;;;8.26;89.08
22653;BME280;11493;43.344;26.226;2023-03-19T06:22:08;100010.03;;;8.25;89.20
22653;BME280;11493;43.344;26.226;2023-03-19T06:24:35;100014.72;;;8.20;89.42
22653;BME280;11493;43.344;26.226;2023-03-19T06:27:03;100023.50;;;8.22;89.65
22653;BME280;11493;43.344;26.226;2023-03-19T06:29:30;100014.69;;;8.30;88.93
22653;BME280;11493;43.344;26.226;2023-03-19T06:32:06;100010.03;;;8.25;88.72
22653;BME280;11493;43.344;26.226;2023-03-19T06:34:37;100020.09;;;8.45;88.29
22653;BME280;11493;43.344;26.226;2023-03-19T06:37:04;100009.72;;;8.42;88.07
22653;BME280;11493;43.344;26.226;2023-03-19T06:39:31;100013.53;;;8.46;88.11
22653;BME280;11493;43.344;26.226;2023-03-19T06:41:58;100026.63;;;8.54;88.20
22653;BME280;11493;43.344;26.226;2023-03-19T06:44:26;100023.91;;;8.49;88.79
22653;BME280;11493;43.344;26.226;2023-03-19T06:46:53;100031.84;;;8.56;89.04
22653;BME280;11493;43.344;26.226;2023-03-19T06:49:21;100024.78;;;8.45;88.89
22653;BME280;11493;43.344;26.226;2023-03-19T06:51:48;100016.19;;;8.56;87.81
22653;BME280;11493;43.344;26.226;2023-03-19T06:54:15;100030.38;;;8.69;87.22
22653;BME280;11493;43.344;26.226;2023-03-19T06:56:43;100024.31;;;8.72;87.05
22653;BME280;11493;43.344;26.226;2023-03-19T06:59:10;100032.84;;;8.70;86.92
22653;BME280;11493;43.344;26.226;2023-03-19T07:01:40;100034.44;;;8.76;86.80
22653;BME280;11493;43.344;26.226;2023-03-19T07:04:08;100025.97;;;8.73;87.05
22653;BME280;11493;43.344;26.226;2023-03-19T07:06:35;100041.84;;;8.76;87.46
22653;BME280;11493;43.344;26.226;2023-03-19T07:09:02;100032.53;;;8.77;87.06
22653;BME280;11493;43.344;26.226;2023-03-19T07:11:30;100032.19;;;8.83;87.48
22653;BME280;11493;43.344;26.226;2023-03-19T07:14:01;100020.91;;;8.90;86.94
22653;BME280;11493;43.344;26.226;2023-03-19T07:16:29;100035.31;;;9.01;86.56
22653;BME280;11493;43.344;26.226;2023-03-19T07:18:57;100040.69;;;9.16;84.87
22653;BME280;11493;43.344;26.226;2023-03-19T07:21:24;100028.59;;;9.17;84.11
22653;BME280;11493;43.344;26.226;2023-03-19T07:23:51;100031.91;;;9.14;84.41
22653;BME280;11493;43.344;26.226;2023-03-19T07:26:18;100036.31;;;9.15;84.51
22653;BME280;11493;43.344;26.226;2023-03-19T07:28:45;100028.84;;;9.20;83.58
22653;BME280;11493;43.344;26.226;2023-03-19T07:31:13;100019.91;;;9.05;83.83
22653;BME280;11493;43.344;26.226;2023-03-19T07:33:40;100025.13;;;9.06;85.28
22653;BME280;11493;43.344;26.226;2023-03-19T07:36:07;100018.00;;;9.05;85.67
22653;BME280;11493;43.344;26.226;2023-03-19T07:38:34;100027.25;;;9.14;86.01
22653;BME280;11493;43.344;26.226;2023-03-19T07:41:02;100027.41;;;9.28;85.60
22653;BME280;11493;43.344;26.226;2023-03-19T07:43:30;100020.75;;;9.34;85.48
22653;BME280;11493;43.344;26.226;2023-03-19T07:45:57;100019.34;;;9.37;84.03
22653;BME280;11493;43.344;26.226;2023-03-19T07:48:25;100023.09;;;9.46;85.27
22653;BME280;11493;43.344;26.226;2023-03-19T07:50:52;100010.84;;;9.62;84.81
22653;BME280;11493;43.344;26.226;2023-03-19T07:53:19;100012.28;;;9.78;83.75
22653;BME280;11493;43.344;26.226;2023-03-19T07:55:47;100006.84;;;9.97;82.26
22653;BME280;11493;43.344;26.226;2023-03-19T07:58:14;100019.81;;;10.15;80.84
22653;BME280;11493;43.344;26.226;2023-03-19T08:00:42;100019.41;;;10.27;79.28
22653;BME280;11493;43.344;26.226;2023-03-19T08:03:10;100021.13;;;10.23;80.10
22653;BME280;11493;43.344;26.226;2023-03-19T08:05:38;100012.66;;;10.38;78.99
22653;BME280;11493;43.344;26.226;2023-03-19T08:08:05;99998.28;;;10.41;79.07
22653;BME280;11493;43.344;26.226;2023-03-19T08:10:35;100014.63;;;10.70;77.92
22653;BME280;11493;43.344;26.226;2023-03-19T08:13:04;100021.31;;;10.83;76.88
22653;BME280;11493;43.344;26.226;2023-03-19T08:15:32;100004.97;;;10.73;76.92
22653;BME280;11493;43.344;26.226;2023-03-19T08:18:00;100006.59;;;10.74;76.14
22653;BME280;11493;43.344;26.226;2023-03-19T08:20:29;100007.78;;;10.86;76.11
22653;BME280;11493;43.344;26.226;2023-03-19T08:22:57;100001.06;;;10.93;76.07
22653;BME280;11493;43.344;26.226;2023-03-19T08:25:25;100009.84;;;10.95;76.38
22653;BME280;11493;43.344;26.226;2023-03-19T08:27:52;100009.97;;;11.03;76.06
22653;BME280;11493;43.344;26.226;2023-03-19T08:30:20;100009.47;;;11.15;74.11
22653;BME280;11493;43.344;26.226;2023-03-19T08:32:47;99999.69;;;11.23;72.11
22653;BME280;11493;43.344;26.226;2023-03-19T08:35:15;99996.44;;;11.20;73.29
22653;BME280;11493;43.344;26.226;2023-03-19T08:37:42;99988.78;;;11.17;74.10
22653;BME280;11493;43.344;26.226;2023-03-19T08:40:09;99997.25;;;11.21;74.21
22653;BME280;11493;43.344;26.226;2023-03-19T08:42:37;99994.69;;;11.25;73.29
22653;BME280;11493;43.344;26.226;2023-03-19T08:45:12;99990.13;;;11.34;72.84
22653;BME280;11493;43.344;26.226;2023-03-19T08:47:40;99997.50;;;11.38;72.45
22653;BME280;11493;43.344;26.226;2023-03-19T08:50:08;99986.78;;;11.50;71.78
22653;BME280;11493;43.344;26.226;2023-03-19T08:52:35;99985.88;;;11.69;72.69
22653;BME280;11493;43.344;26.226;2023-03-19T08:55:03;99997.31;;;11.90;72.52
22653;BME280;11493;43.344;26.226;2023-03-19T08:57:31;100001.81;;;11.99;72.86
22653;BME280;11493;43.344;26.226;2023-03-19T08:59:58;99991.59;;;12.00;71.75
22653;BME280;11493;43.344;26.226;2023-03-19T09:02:26;99988.72;;;12.05;69.99
22653;BME280;11493;43.344;26.226;2023-03-19T09:04:53;99986.88;;;12.14;70.51
22653;BME280;11493;43.344;26.226;2023-03-19T09:07:20;99982.88;;;12.20;69.26
22653;BME280;11493;43.344;26.226;2023-03-19T09:09:47;99975.50;;;12.29;68.78
22653;BME280;11493;43.344;26.226;2023-03-19T09:12:16;99978.16;;;11.84;68.77
22653;BME280;11493;43.344;26.226;2023-03-19T09:14:43;99955.84;;;11.95;68.49
22653;BME280;11493;43.344;26.226;2023-03-19T09:17:11;99979.53;;;12.09;68.51
22653;BME280;11493;43.344;26.226;2023-03-19T09:19:39;99970.56;;;12.04;69.33
22653;BME280;11493;43.344;26.226;2023-03-19T09:22:07;99969.50;;;12.13;68.20
22653;BME280;11493;43.344;26.226;2023-03-19T09:24:34;99971.06;;;12.06;68.61
22653;BME280;11493;43.344;26.226;2023-03-19T09:27:05;99968.69;;;12.13;69.11
22653;BME280;11493;43.344;26.226;2023-03-19T09:29:32;99968.31;;;11.92;69.13
22653;BME280;11493;43.344;26.226;2023-03-19T09:32:00;99950.31;;;12.08;69.06
22653;BME280;11493;43.344;26.226;2023-03-19T09:34:27;99947.53;;;12.22;68.41
22653;BME280;11493;43.344;26.226;2023-03-19T09:36:54;99952.59;;;12.42;67.88
22653;BME280;11493;43.344;26.226;2023-03-19T09:39:21;99938.66;;;12.47;66.59
22653;BME280;11493;43.344;26.226;2023-03-19T09:44:33;99946.53;;;12.04;67.38
22653;BME280;11493;43.344;26.226;2023-03-19T09:47:26;99937.00;;;12.24;67.70
22653;BME280;11493;43.344;26.226;2023-03-19T09:49:57;99933.03;;;12.53;66.56
22653;BME280;11493;43.344;26.226;2023-03-19T09:57:55;99921.75;;;12.94;66.05
22653;BME280;11493;43.344;26.226;2023-03-19T10:00:27;99924.56;;;13.02;63.75
22653;BME280;11493;43.344;26.226;2023-03-19T10:08:51;99918.66;;;13.18;62.83
22653;BME280;11493;43.344;26.226;2023-03-19T10:16:52;99903.22;;;13.65;61.50
22653;BME280;11493;43.344;26.226;2023-03-19T10:19:23;99907.78;;;13.69;61.47
22653;BME280;11493;43.344;26.226;2023-03-19T10:21:58;99897.03;;;13.68;60.51
22653;BME280;11493;43.344;26.226;2023-03-19T10:24:31;99899.16;;;13.71;60.57
22653;BME280;11493;43.344;26.226;2023-03-19T10:27:08;99894.44;;;13.71;59.96
22653;BME280;11493;43.344;26.226;2023-03-19T10:29:38;99888.88;;;13.54;60.36
22653;BME280;11493;43.344;26.226;2023-03-19T10:32:47;99885.00;;;13.64;60.27
22653;BME280;11493;43.344;26.226;2023-03-19T10:35:23;99817.31;;;13.35;59.99
22653;BME280;11493;43.344;26.226;2023-03-19T10:37:54;99858.81;;;13.61;62.14
22653;BME280;11493;43.344;26.226;2023-03-19T10:40:43;99852.81;;;13.68;60.21
22653;BME280;11493;43.344;26.226;2023-03-19T10:43:17;99863.56;;;13.87;59.70
22653;BME280;11493;43.344;26.226;2023-03-19T10:45:46;99850.97;;;13.55;60.43
22653;BME280;11493;43.344;26.226;2023-03-19T10:48:17;99859.16;;;13.77;59.57
22653;BME280;11493;43.344;26.226;2023-03-19T10:51:04;99850.22;;;13.80;59.64
22653;BME280;11493;43.344;26.226;2023-03-19T10:53:34;99841.59;;;13.81;60.63
22653;BME280;11493;43.344;26.226;2023-03-19T10:56:16;99854.63;;;13.90;59.64
22653;BME280;11493;43.344;26.226;2023-03-19T10:58:59;99854.16;;;14.05;59.50
22653;BME280;11493;43.344;26.226;2023-03-19T11:01:38;99847.66;;;14.09;59.89
22653;BME280;11493;43.344;26.226;2023-03-19T11:04:17;99851.69;;;14.12;58.66
22653;BME280;11493;43.344;26.226;2023-03-19T11:06:51;99848.59;;;14.13;58.62
22653;BME280;11493;43.344;26.226;2023-03-19T11:09:37;99838.19;;;13.85;59.67
22653;BME280;11493;43.344;26.226;2023-03-19T11:12:32;99838.03;;;13.90;59.84
22653;BME280;11493;43.344;26.226;2023-03-19T11:15:00;99826.66;;;14.00;59.81
22653;BME280;11493;43.344;26.226;2023-03-19T11:17:38;99830.38;;;14.04;59.18
22653;BME280;11493;43.344;26.226;2023-03-19T11:20:22;99827.44;;;14.18;59.99
22653;BME280;11493;43.344;26.226;2023-03-19T11:22:51;99815.09;;;13.98;58.35
22653;BME280;11493;43.344;26.226;2023-03-19T11:25:29;99812.63;;;14.22;58.14
22653;BME280;11493;43.344;26.226;2023-03-19T11:28:17;99813.75;;;14.47;57.66
22653;BME280;11493;43.344;26.226;2023-03-19T11:31:11;99812.91;;;14.55;57.68
22653;BME280;11493;43.344;26.226;2023-03-19T11:36:35;99804.16;;;14.44;57.51
22653;BME280;11493;43.344;26.226;2023-03-19T11:45:25;99799.03;;;14.72;56.55
22653;BME280;11493;43.344;26.226;2023-03-19T11:50:32;99776.06;;;14.72;56.71
22653;BME280;11493;43.344;26.226;2023-03-19T11:53:04;99778.16;;;14.75;56.98
22653;BME280;11493;43.344;26.226;2023-03-19T11:58:36;99767.44;;;14.65;56.10
22653;BME280;11493;43.344;26.226;2023-03-19T12:04:15;99770.41;;;14.89;55.65
22653;BME280;11493;43.344;26.226;2023-03-19T12:12:20;99766.16;;;14.92;55.74
22653;BME280;11493;43.344;26.226;2023-03-19T12:17:41;99761.97;;;15.15;54.93
22653;BME280;11493;43.344;26.226;2023-03-19T12:20:34;99752.72;;;15.11;54.82
22653;BME280;11493;43.344;26.226;2023-03-19T12:26:05;99758.53;;;15.18;54.42
22653;BME280;11493;43.344;26.226;2023-03-19T12:28:49;99741.63;;;15.11;54.35
22653;BME280;11493;43.344;26.226;2023-03-19T12:34:11;99736.31;;;15.27;54.35
22653;BME280;11493;43.344;26.226;2023-03-19T12:37:02;99734.22;;;15.24;54.33
22653;BME280;11493;43.344;26.226;2023-03-19T12:39:34;99731.72;;;15.31;54.53
22653;BME280;11493;43.344;26.226;2023-03-19T12:42:04;99738.50;;;15.42;54.62
22653;BME280;11493;43.344;26.226;2023-03-19T12:44:37;99735.53;;;15.47;54.29
22653;BME280;11493;43.344;26.226;2023-03-19T12:47:22;99730.03;;;15.38;54.23
22653;BME280;11493;43.344;26.226;2023-03-19T12:50:00;99715.09;;;15.31;54.70
22653;BME280;11493;43.344;26.226;2023-03-19T12:52:38;99709.94;;;15.41;54.66
22653;BME280;11493;43.344;26.226;2023-03-19T12:55:44;99710.22;;;15.49;53.10
22653;BME280;11493;43.344;26.226;2023-03-19T12:58:24;99719.56;;;15.44;53.93
22653;BME280;11493;43.344;26.226;2023-03-19T13:01:06;99722.41;;;15.56;52.83
22653;BME280;11493;43.344;26.226;2023-03-19T13:06:35;99707.44;;;15.49;54.11
22653;BME280;11493;43.344;26.226;2023-03-19T13:19:49;99695.00;;;15.55;54.90
22653;BME280;11493;43.344;26.226;2023-03-19T13:22:26;99711.66;;;15.75;53.34
22653;BME280;11493;43.344;26.226;2023-03-19T13:24:55;99706.31;;;15.70;53.15
22653;BME280;11493;43.344;26.226;2023-03-19T13:27:32;99688.50;;;15.71;52.96
22653;BME280;11493;43.344;26.226;2023-03-19T13:32:43;99696.81;;;15.59;53.75
22653;BME280;11493;43.344;26.226;2023-03-19T13:40:55;99685.66;;;15.80;53.74
22653;BME280;11493;43.344;26.226;2023-03-19T13:48:51;99674.75;;;15.75;52.50
22653;BME280;11493;43.344;26.226;2023-03-19T13:56:20;99668.38;;;15.95;51.50
22653;BME280;11493;43.344;26.226;2023-03-19T14:01:47;99655.00;;;15.76;51.37
22653;BME280;11493;43.344;26.226;2023-03-19T14:04:36;99659.34;;;15.65;51.20
22653;BME280;11493;43.344;26.226;2023-03-19T14:07:18;99656.84;;;15.72;50.63
22653;BME280;11493;43.344;26.226;2023-03-19T14:09:49;99637.75;;;15.71;51.06
22653;BME280;11493;43.344;26.226;2023-03-19T14:15:00;99651.53;;;15.80;52.05
22653;BME280;11493;43.344;26.226;2023-03-19T14:25:18;99627.59;;;15.75;51.93
22653;BME280;11493;43.344;26.226;2023-03-19T14:27:59;99640.03;;;15.90;51.54
22653;BME280;11493;43.344;26.226;2023-03-19T14:30:37;99638.63;;;15.84;51.77
22653;BME280;11493;43.344;26.226;2023-03-19T14:33:16;99633.75;;;15.81;52.12
22653;BME280;11493;43.344;26.226;2023-03-19T14:35:45;99634.78;;;15.76;52.02
22653;BME280;11493;43.344;26.226;2023-03-19T14:38:33;99642.06;;;15.81;51.96
22653;BME280;11493;43.344;26.226;2023-03-19T14:41:03;99641.34;;;15.71;51.84
22653;BME280;11493;43.344;26.226;2023-03-19T14:44:00;99643.66;;;15.69;51.46
22653;BME280;11493;43.344;26.226;2023-03-19T14:52:40;99636.47;;;15.68;51.60
22653;BME280;11493;43.344;26.226;2023-03-19T14:55:13;99633.44;;;15.61;52.01
22653;BME280;11493;43.344;26.226;2023-03-19T14:57:40;99631.91;;;15.52;52.63
22653;BME280;11493;43.344;26.226;2023-03-19T15:00:13;99630.06;;;15.56;52.17
22653;BME280;11493;43.344;26.226;2023-03-19T15:02:52;99617.44;;;15.46;52.74